createdAt,value
2022-11-16T00:00:13.962Z,98462.72
2022-11-16T00:01:24.458Z,98459.28
2022-11-16T00:02:25.982Z,98465.88
2022-11-16T00:03:27.540Z,98465.03
2022-11-16T00:04:29.071Z,98465.63
2022-11-16T00:05:30.947Z,98464.13
2022-11-16T00:06:32.479Z,98459.72
2022-11-16T00:07:34.034Z,98454.28
2022-11-16T00:08:38.577Z,98450.41
2022-11-16T00:09:40.082Z,98443.94
2022-11-16T00:10:41.554Z,98443.94
2022-11-16T00:11:43.353Z,98441.00
2022-11-16T00:12:44.857Z,98436.34
2022-11-16T00:13:46.382Z,98443.41
2022-11-16T00:14:47.877Z,98436.50
2022-11-16T00:15:56.461Z,98440.66
2022-11-16T00:16:58.652Z,98438.28
2022-11-16T00:18:00.108Z,98434.00
2022-11-16T00:19:03.254Z,98443.53
2022-11-16T00:20:05.202Z,98442.19
2022-11-16T00:21:07.189Z,98435.97
2022-11-16T00:22:08.695Z,98439.44
2022-11-16T00:23:10.189Z,98433.28
2022-11-16T00:24:13.404Z,98433.22
2022-11-16T00:25:14.902Z,98435.56
2022-11-16T00:26:16.470Z,98435.56
2022-11-16T00:27:18.008Z,98431.31
2022-11-16T00:28:19.486Z,98433.72
2022-11-16T00:29:26.175Z,98432.50
2022-11-16T00:30:27.674Z,98438.72
2022-11-16T00:31:29.195Z,98441.13
2022-11-16T00:32:30.678Z,98437.50
2022-11-16T00:33:33.198Z,98441.50
2022-11-16T00:34:34.701Z,98440.69
2022-11-16T00:35:39.852Z,98437.91
2022-11-16T00:36:41.413Z,98441.34
2022-11-16T00:37:43.082Z,98446.91
2022-11-16T00:38:44.759Z,98443.75
2022-11-16T00:39:48.081Z,98446.53
2022-11-16T00:40:49.982Z,98449.72
2022-11-16T00:41:51.472Z,98448.66
2022-11-16T00:42:52.968Z,98441.75
2022-11-16T00:43:54.473Z,98445.19
2022-11-16T00:44:55.963Z,98450.44
2022-11-16T00:45:57.829Z,98449.47
2022-11-16T00:46:59.329Z,98445.19
2022-11-16T00:48:00.955Z,98444.66
2022-11-16T00:49:03.961Z,98444.53
2022-11-16T00:50:06.142Z,98445.63
2022-11-16T00:51:07.647Z,98441.53
2022-11-16T00:52:09.176Z,98452.03
2022-11-16T00:53:13.363Z,98446.78
2022-11-16T00:54:14.886Z,98444.16
2022-11-16T00:55:16.478Z,98450.50
2022-11-16T00:56:17.963Z,98442.47
2022-11-16T00:57:19.479Z,98444.97
2022-11-16T00:58:21.362Z,98448.69
2022-11-16T00:59:29.089Z,98443.72
2022-11-16T01:00:32.981Z,98434.75
2022-11-16T01:01:34.724Z,98441.84
2022-11-16T01:02:36.547Z,98436.97
2022-11-16T01:03:38.884Z,98442.13
2022-11-16T01:04:40.396Z,98431.63
2022-11-16T01:05:41.884Z,98429.25
2022-11-16T01:06:43.382Z,98424.44
2022-11-16T01:07:44.872Z,98435.47
2022-11-16T01:08:46.371Z,98427.88
2022-11-16T01:09:47.904Z,98428.72
2022-11-16T01:10:51.713Z,98432.97
2022-11-16T01:11:53.337Z,98433.28
2022-11-16T01:12:55.529Z,98429.53
2022-11-16T01:13:57.042Z,98422.91
2022-11-16T01:14:58.603Z,98425.84
2022-11-16T01:16:00.078Z,98423.34
2022-11-16T01:17:01.680Z,98424.19
2022-11-16T01:18:03.237Z,98416.69
2022-11-16T01:19:05.641Z,98415.59
2022-11-16T01:20:10.615Z,98413.25
2022-11-16T01:21:12.229Z,98409.66
2022-11-16T01:22:13.728Z,98412.28
2022-11-16T01:23:15.244Z,98410.63
2022-11-16T01:24:16.737Z,98410.75
2022-11-16T01:25:18.925Z,98409.25
2022-11-16T01:26:20.514Z,98406.91
2022-11-16T01:27:22.037Z,98411.19
2022-11-16T01:28:23.618Z,98411.34
2022-11-16T01:29:27.588Z,98404.16
2022-11-16T01:30:31.827Z,98406.91
2022-11-16T01:31:40.650Z,98406.25
2022-11-16T01:32:42.425Z,98407.34
2022-11-16T01:33:43.909Z,98408.03
2022-11-16T01:34:54.045Z,98401.56
2022-11-16T01:36:02.090Z,98398.41
2022-11-16T01:37:03.869Z,98400.88
2022-11-16T01:38:08.301Z,98398.16
2022-11-16T01:39:12.295Z,98397.31
2022-11-16T01:40:22.076Z,98396.78
2022-11-16T01:41:25.893Z,98397.91
2022-11-16T01:42:33.362Z,98393.50
2022-11-16T01:43:54.481Z,98392.66
2022-11-16T01:45:07.655Z,98393.25
2022-11-16T01:46:09.348Z,98388.13
2022-11-16T01:47:14.454Z,98389.78
2022-11-16T01:48:20.345Z,98394.94
2022-11-16T01:49:25.709Z,98393.81
2022-11-16T01:50:30.561Z,98382.50
2022-11-16T01:51:33.683Z,98383.06
2022-11-16T01:52:39.513Z,98382.47
2022-11-16T01:53:41.180Z,98386.88
2022-11-16T01:54:45.402Z,98374.97
2022-11-16T01:55:48.577Z,98381.91
2022-11-16T01:56:56.943Z,98375.41
2022-11-16T01:58:17.208Z,98379.09
2022-11-16T01:59:19.292Z,98383.00
2022-11-16T02:00:22.169Z,98375.44
2022-11-16T02:01:35.860Z,98378.06
2022-11-16T02:02:38.391Z,98373.41
2022-11-16T02:03:40.124Z,98370.63
2022-11-16T02:04:42.768Z,98365.38
2022-11-16T02:08:01.104Z,98375.34
2022-11-16T02:09:30.444Z,98371.75
2022-11-16T02:10:57.456Z,98369.38
2022-11-16T02:12:32.492Z,98376.16
2022-11-16T02:14:16.860Z,98368.84
2022-11-16T02:15:40.169Z,98372.72
2022-11-16T02:17:24.834Z,98363.47
2022-11-16T02:18:38.130Z,98363.97
2022-11-16T02:19:48.895Z,98367.03
2022-11-16T02:21:15.114Z,98362.31
2022-11-16T02:22:38.560Z,98362.59
2022-11-16T02:24:06.143Z,98360.13
2022-11-16T02:25:30.585Z,98353.63
2022-11-16T02:26:44.030Z,98357.59
2022-11-16T02:28:12.779Z,98361.75
2022-11-16T02:29:37.394Z,98355.22
2022-11-16T02:30:44.965Z,98360.47
2022-11-16T02:31:50.663Z,98365.28
2022-11-16T02:33:02.630Z,98361.44
2022-11-16T02:34:05.943Z,98362.66
2022-11-16T02:35:13.697Z,98363.16
2022-11-16T02:36:20.180Z,98365.53
2022-11-16T02:37:24.582Z,98359.72
2022-11-16T02:38:31.088Z,98358.66
2022-11-16T02:39:34.529Z,98352.59
2022-11-16T02:40:41.012Z,98361.44
2022-11-16T02:41:46.550Z,98353.81
2022-11-16T02:42:54.484Z,98357.59
2022-11-16T02:44:08.067Z,98357.16
2022-11-16T02:45:17.274Z,98356.63
2022-11-16T02:46:23.683Z,98358.44
2022-11-16T02:47:31.677Z,98346.84
2022-11-16T02:48:38.342Z,98345.19
2022-11-16T02:49:45.282Z,98351.97
2022-11-16T02:50:49.601Z,98350.88
2022-11-16T02:51:53.292Z,98339.81
2022-11-16T02:52:54.963Z,98343.41
2022-11-16T02:54:08.763Z,98339.41
2022-11-16T02:55:12.407Z,98341.31
2022-11-16T02:56:16.797Z,98337.41
2022-11-16T02:57:36.575Z,98340.72
2022-11-16T02:58:38.115Z,98342.81
2022-11-16T02:59:44.239Z,98343.63
2022-11-16T03:00:59.087Z,98344.03
2022-11-16T03:02:04.543Z,98335.88
2022-11-16T03:03:21.083Z,98344.06
2022-11-16T03:04:32.251Z,98339.78
2022-11-16T03:05:41.066Z,98342.81
2022-11-16T03:06:46.009Z,98343.75
2022-11-16T03:07:58.369Z,98338.09
2022-11-16T03:09:05.762Z,98342.53
2022-11-16T03:10:07.705Z,98339.34
2022-11-16T03:11:11.912Z,98342.34
2022-11-16T03:12:18.690Z,98332.72
2022-11-16T03:13:22.554Z,98338.78
2022-11-16T03:14:38.772Z,98332.41
2022-11-16T03:15:41.863Z,98340.63
2022-11-16T03:16:53.734Z,98336.31
2022-11-16T03:17:56.271Z,98331.16
2022-11-16T03:19:02.687Z,98341.91
2022-11-16T03:20:09.460Z,98339.13
2022-11-16T03:21:21.613Z,98332.91
2022-11-16T03:23:03.550Z,98331.41
2022-11-16T03:24:06.318Z,98336.34
2022-11-16T03:25:11.581Z,98336.50
2022-11-16T03:26:16.350Z,98332.22
2022-11-16T03:27:42.225Z,98335.38
2022-11-16T03:28:55.008Z,98334.84
2022-11-16T03:30:07.725Z,98337.19
2022-11-16T03:31:15.334Z,98337.25
2022-11-16T03:32:23.499Z,98337.97
2022-11-16T03:33:32.525Z,98327.81
2022-11-16T03:34:37.540Z,98336.38
2022-11-16T03:35:55.402Z,98334.59
2022-11-16T03:37:00.227Z,98328.59
2022-11-16T03:38:04.828Z,98323.38
2022-11-16T03:39:16.595Z,98329.72
2022-11-16T03:40:22.354Z,98324.53
2022-11-16T03:41:28.045Z,98326.84
2022-11-16T03:42:30.370Z,98329.84
2022-11-16T03:43:33.828Z,98320.84
2022-11-16T03:44:38.326Z,98326.63
2022-11-16T03:45:41.878Z,98320.25
2022-11-16T03:46:45.917Z,98321.59
2022-11-16T03:47:48.812Z,98320.47
2022-11-16T03:48:57.305Z,98320.16
2022-11-16T03:50:00.878Z,98318.31
2022-11-16T03:51:04.023Z,98315.56
2022-11-16T03:52:05.721Z,98315.41
2022-11-16T03:53:08.499Z,98316.41
2022-11-16T03:54:11.358Z,98315.25
2022-11-16T03:55:14.024Z,98313.59
2022-11-16T03:56:17.220Z,98310.00
2022-11-16T03:57:20.476Z,98311.13
2022-11-16T03:58:27.982Z,98303.09
2022-11-16T03:59:31.772Z,98310.16
2022-11-16T04:00:34.416Z,98302.09
2022-11-16T04:01:44.688Z,98308.03
2022-11-16T04:02:47.650Z,98306.63
2022-11-16T04:03:53.987Z,98308.91
2022-11-16T04:04:55.542Z,98307.56
2022-11-16T04:05:58.402Z,98305.22
2022-11-16T04:07:00.118Z,98298.94
2022-11-16T04:08:04.129Z,98294.56
2022-11-16T04:09:08.417Z,98298.50
2022-11-16T04:10:13.217Z,98296.69
2022-11-16T04:11:19.001Z,98291.06
2022-11-16T04:12:21.871Z,98291.66
2022-11-16T04:13:30.327Z,98288.34
2022-11-16T04:14:32.281Z,98284.06
2022-11-16T04:15:33.819Z,98285.59
2022-11-16T04:16:35.517Z,98281.31
2022-11-16T04:17:40.317Z,98286.78
2022-11-16T04:18:43.967Z,98281.91
2022-11-16T04:19:47.175Z,98281.22
2022-11-16T04:20:49.169Z,98284.47
2022-11-16T04:22:04.564Z,98280.03
2022-11-16T04:23:13.090Z,98277.84
2022-11-16T04:24:23.237Z,98279.00
2022-11-16T04:25:30.814Z,98275.53
2022-11-16T04:26:33.153Z,98274.03
2022-11-16T04:27:34.824Z,98272.38
2022-11-16T04:28:38.648Z,98275.38
2022-11-16T04:29:41.494Z,98268.72
2022-11-16T04:30:46.582Z,98267.94
2022-11-16T04:31:48.113Z,98262.06
2022-11-16T04:32:50.425Z,98275.44
2022-11-16T04:33:53.289Z,98268.06
2022-11-16T04:34:55.043Z,98267.94
2022-11-16T04:35:57.280Z,98272.03
2022-11-16T04:36:58.802Z,98273.69
2022-11-16T04:38:02.104Z,98264.00
2022-11-16T04:39:07.598Z,98267.47
2022-11-16T04:40:10.356Z,98261.06
2022-11-16T04:41:12.092Z,98266.50
2022-11-16T04:42:17.747Z,98266.50
2022-11-16T04:43:21.309Z,98263.03
2022-11-16T04:44:27.291Z,98260.50
2022-11-16T04:45:31.607Z,98256.06
2022-11-16T04:46:33.107Z,98254.09
2022-11-16T04:47:34.582Z,98250.66
2022-11-16T04:48:37.154Z,98255.91
2022-11-16T04:49:39.075Z,98251.31
2022-11-16T04:50:43.065Z,98250.97
2022-11-16T04:51:44.637Z,98250.59
2022-11-16T04:52:46.229Z,98246.84
2022-11-16T04:53:49.560Z,98245.19
2022-11-16T04:54:56.215Z,98239.66
2022-11-16T04:56:00.719Z,98246.28
2022-11-16T04:57:03.194Z,98241.69
2022-11-16T04:58:04.919Z,98242.03
2022-11-16T04:59:06.457Z,98241.72
2022-11-16T05:00:08.570Z,98245.72
2022-11-16T05:01:11.743Z,98240.16
2022-11-16T05:02:13.330Z,98237.22
2022-11-16T05:03:25.820Z,98242.16
2022-11-16T05:04:27.192Z,98236.09
2022-11-16T05:05:28.858Z,98234.25
2022-11-16T05:06:30.673Z,98229.84
2022-11-16T05:07:32.261Z,98235.94
2022-11-16T05:08:39.875Z,98233.31
2022-11-16T05:09:46.499Z,98238.56
2022-11-16T05:10:50.919Z,98229.50
2022-11-16T05:11:53.322Z,98226.16
2022-11-16T05:12:54.835Z,98234.22
2022-11-16T05:13:57.521Z,98233.56
2022-11-16T05:14:59.374Z,98233.84
2022-11-16T05:16:03.874Z,98231.38
2022-11-16T05:17:05.945Z,98232.88
2022-11-16T05:18:07.431Z,98230.56
2022-11-16T05:19:08.909Z,98232.66
2022-11-16T05:20:11.166Z,98224.94
2022-11-16T05:21:20.404Z,98226.91
2022-11-16T05:22:21.986Z,98226.69
2022-11-16T05:23:24.863Z,98226.81
2022-11-16T05:24:26.405Z,98223.16
2022-11-16T05:25:31.249Z,98228.03
2022-11-16T05:26:36.043Z,98231.47
2022-11-16T05:27:37.968Z,98227.59
2022-11-16T05:28:40.433Z,98226.75
2022-11-16T05:29:44.668Z,98227.06
2022-11-16T05:30:49.346Z,98223.91
2022-11-16T05:31:55.075Z,98227.72
2022-11-16T05:32:57.712Z,98227.59
2022-11-16T05:33:59.932Z,98229.38
2022-11-16T05:35:01.510Z,98223.25
2022-11-16T05:36:03.125Z,98230.66
2022-11-16T05:37:04.852Z,98230.81
2022-11-16T05:38:06.387Z,98232.63
2022-11-16T05:39:12.324Z,98217.84
2022-11-16T05:40:15.672Z,98232.31
2022-11-16T05:41:24.194Z,98231.19
2022-11-16T05:42:25.725Z,98227.06
2022-11-16T05:43:29.530Z,98231.13
2022-11-16T05:44:40.087Z,98224.22
2022-11-16T05:45:43.076Z,98230.97
2022-11-16T05:46:46.524Z,98230.53
2022-11-16T05:47:47.994Z,98220.53
2022-11-16T05:48:50.153Z,98220.91
2022-11-16T05:49:52.072Z,98226.81
2022-11-16T05:50:58.618Z,98218.63
2022-11-16T05:52:01.013Z,98219.84
2022-11-16T05:53:03.607Z,98217.88
2022-11-16T05:54:05.614Z,98218.53
2022-11-16T05:55:07.614Z,98223.50
2022-11-16T05:56:15.807Z,98218.91
2022-11-16T05:57:18.287Z,98221.41
2022-11-16T05:58:19.842Z,98221.53
2022-11-16T05:59:24.162Z,98223.19
2022-11-16T06:00:28.837Z,98222.22
2022-11-16T06:01:30.448Z,98220.44
2022-11-16T06:02:33.542Z,98227.31
2022-11-16T06:03:35.895Z,98224.53
2022-11-16T06:04:37.731Z,98216.66
2022-11-16T06:05:40.742Z,98220.13
2022-11-16T06:06:44.190Z,98214.84
2022-11-16T06:07:46.873Z,98217.63
2022-11-16T06:08:48.439Z,98217.63
2022-11-16T06:09:54.918Z,98217.31
2022-11-16T06:10:56.827Z,98211.25
2022-11-16T06:11:58.303Z,98205.69
2022-11-16T06:12:59.886Z,98207.50
2022-11-16T06:14:01.357Z,98211.59
2022-11-16T06:15:03.005Z,98210.47
2022-11-16T06:16:05.201Z,98206.72
2022-11-16T06:17:08.605Z,98206.97
2022-11-16T06:18:10.425Z,98210.16
2022-11-16T06:19:11.867Z,98210.22
2022-11-16T06:20:13.662Z,98209.31
2022-11-16T06:21:16.946Z,98208.25
2022-11-16T06:22:18.391Z,98204.09
2022-11-16T06:23:19.788Z,98201.78
2022-11-16T06:24:21.268Z,98201.94
2022-11-16T06:25:22.835Z,98208.47
2022-11-16T06:26:24.329Z,98207.41
2022-11-16T06:27:25.802Z,98205.31
2022-11-16T06:28:27.717Z,98209.88
2022-11-16T06:29:29.850Z,98209.75
2022-11-16T06:30:32.653Z,98210.41
2022-11-16T06:31:34.141Z,98210.94
2022-11-16T06:32:37.286Z,98213.13
2022-11-16T06:33:40.068Z,98216.25
2022-11-16T06:34:48.139Z,98213.72
2022-11-16T06:35:50.035Z,98209.66
2022-11-16T06:36:55.281Z,98207.38
2022-11-16T06:37:58.199Z,98212.06
2022-11-16T06:39:00.530Z,98208.31
2022-11-16T06:40:04.074Z,98208.81
2022-11-16T06:41:09.273Z,98212.25
2022-11-16T06:42:15.992Z,98208.00
2022-11-16T06:43:18.081Z,98210.31
2022-11-16T06:44:19.688Z,98208.34
2022-11-16T06:45:29.729Z,98206.09
2022-11-16T06:46:33.955Z,98203.97
2022-11-16T06:47:35.673Z,98203.69
2022-11-16T06:48:37.461Z,98209.59
2022-11-16T06:49:43.633Z,98199.09
2022-11-16T06:50:53.384Z,98205.16
2022-11-16T06:51:56.232Z,98204.88
2022-11-16T06:52:57.790Z,98200.28
2022-11-16T06:53:59.266Z,98199.63
2022-11-16T06:55:02.219Z,98202.53
2022-11-16T06:56:07.733Z,98197.59
2022-11-16T06:57:15.255Z,98193.00
2022-11-16T06:58:16.751Z,98193.53
2022-11-16T06:59:19.640Z,98197.00
2022-11-16T07:00:21.306Z,98190.75
2022-11-16T07:01:24.361Z,98197.47
2022-11-16T07:02:30.250Z,98191.28
2022-11-16T07:03:33.306Z,98191.94
2022-11-16T07:04:37.562Z,98195.53
2022-11-16T07:05:40.933Z,98196.34
2022-11-16T07:06:46.428Z,98196.03
2022-11-16T07:07:53.942Z,98200.03
2022-11-16T07:08:55.576Z,98196.25
2022-11-16T07:10:00.632Z,98203.16
2022-11-16T07:11:06.633Z,98200.69
2022-11-16T07:12:08.633Z,98194.19
2022-11-16T07:13:13.424Z,98195.81
2022-11-16T07:14:14.943Z,98197.06
2022-11-16T07:15:17.993Z,98189.50
2022-11-16T07:16:21.609Z,98188.84
2022-11-16T07:17:30.502Z,98197.03
2022-11-16T07:18:34.829Z,98196.66
2022-11-16T07:19:37.439Z,98194.34
2022-11-16T07:20:40.379Z,98194.66
2022-11-16T07:21:42.882Z,98190.19
2022-11-16T07:22:49.263Z,98186.25
2022-11-16T07:23:53.091Z,98186.25
2022-11-16T07:24:55.910Z,98190.97
2022-11-16T07:26:01.957Z,98184.84
2022-11-16T07:27:10.964Z,98188.56
2022-11-16T07:28:15.796Z,98184.31
2022-11-16T07:29:17.269Z,98184.47
2022-11-16T07:30:38.023Z,98184.63
2022-11-16T07:31:46.167Z,98173.66
2022-11-16T07:33:06.369Z,98179.13
2022-11-16T07:34:26.481Z,98173.22
2022-11-16T07:35:38.332Z,98176.13
2022-11-16T07:36:39.817Z,98184.00
2022-11-16T07:37:42.298Z,98180.41
2022-11-16T07:38:45.049Z,98171.72
2022-11-16T07:39:46.570Z,98169.75
2022-11-16T07:40:48.400Z,98178.28
2022-11-16T07:41:52.373Z,98179.78
2022-11-16T07:43:02.014Z,98173.88
2022-11-16T07:44:26.446Z,98179.91
2022-11-16T07:45:40.955Z,98176.59
2022-11-16T07:46:46.984Z,98182.00
2022-11-16T07:47:49.562Z,98179.81
2022-11-16T07:48:57.755Z,98176.22
2022-11-16T07:50:28.757Z,98178.25
2022-11-16T07:51:31.818Z,98177.25
2022-11-16T07:52:51.489Z,98185.66
2022-11-16T07:53:56.855Z,98178.75
2022-11-16T07:54:58.437Z,98183.19
2022-11-16T07:56:02.755Z,98182.34
2022-11-16T07:57:05.986Z,98181.53
2022-11-16T07:58:07.906Z,98178.53
2022-11-16T07:59:09.853Z,98178.25
2022-11-16T08:00:16.118Z,98177.09
2022-11-16T08:01:24.521Z,98182.72
2022-11-16T08:02:26.272Z,98182.56
2022-11-16T08:03:27.785Z,98173.88
2022-11-16T08:04:29.621Z,98170.41
2022-11-16T08:05:31.202Z,98175.16
2022-11-16T08:06:32.688Z,98180.41
2022-11-16T08:07:34.609Z,98174.84
2022-11-16T08:08:36.703Z,98175.84
2022-11-16T08:09:38.548Z,98179.94
2022-11-16T08:10:40.291Z,98175.66
2022-11-16T08:11:42.579Z,98175.53
2022-11-16T08:12:44.261Z,98170.94
2022-11-16T08:13:46.197Z,98177.16
2022-11-16T08:14:47.751Z,98175.06
2022-11-16T08:15:50.749Z,98166.06
2022-11-16T08:16:52.286Z,98172.00
2022-11-16T08:17:53.817Z,98175.59
2022-11-16T08:18:55.336Z,98167.03
2022-11-16T08:19:56.848Z,98172.75
2022-11-16T08:20:59.258Z,98165.03
2022-11-16T08:22:00.813Z,98168.31
2022-11-16T08:23:05.082Z,98166.53
2022-11-16T08:24:09.411Z,98164.56
2022-11-16T08:25:14.467Z,98166.53
2022-11-16T08:26:20.502Z,98160.44
2022-11-16T08:27:27.162Z,98155.63
2022-11-16T08:28:31.783Z,98163.19
2022-11-16T08:29:33.626Z,98156.16
2022-11-16T08:30:38.169Z,98158.47
2022-11-16T08:31:40.926Z,98154.59
2022-11-16T08:32:46.787Z,98158.03
2022-11-16T08:33:49.982Z,98155.25
2022-11-16T08:35:56.243Z,98157.34
2022-11-16T08:36:57.890Z,98151.25
2022-11-16T08:38:06.182Z,98152.25
2022-11-16T08:39:08.205Z,98148.81
2022-11-16T08:40:10.504Z,98154.59
2022-11-16T08:41:14.326Z,98146.84
2022-11-16T08:42:15.829Z,98147.00
2022-11-16T08:43:21.155Z,98151.97
2022-11-16T08:44:22.889Z,98143.75
2022-11-16T08:45:27.557Z,98149.38
2022-11-16T08:46:30.880Z,98148.56
2022-11-16T08:47:42.560Z,98153.50
2022-11-16T08:48:44.637Z,98154.34
2022-11-16T08:49:49.571Z,98153.03
2022-11-16T08:51:15.904Z,98154.03
2022-11-16T08:52:14.902Z,98155.97
2022-11-16T08:53:17.561Z,98153.63
2022-11-16T08:54:19.174Z,98161.16
2022-11-16T08:55:20.939Z,98154.94
2022-11-16T08:56:22.687Z,98154.47
2022-11-16T08:57:24.215Z,98154.78
2022-11-16T08:58:31.372Z,98154.09
2022-11-16T08:59:33.162Z,98153.28
2022-11-16T09:00:40.727Z,98153.44
2022-11-16T09:01:42.315Z,98152.31
2022-11-16T09:02:43.865Z,98148.03
2022-11-16T09:03:45.923Z,98150.22
2022-11-16T09:04:47.412Z,98154.78
2022-11-16T09:05:48.900Z,98151.13
2022-11-16T09:06:50.583Z,98149.34
2022-11-16T09:07:52.094Z,98160.50
2022-11-16T09:08:54.078Z,98157.25
2022-11-16T09:09:55.571Z,98158.69
2022-11-16T09:10:57.092Z,98158.69
2022-11-16T09:11:58.599Z,98154.78
2022-11-16T09:13:00.125Z,98158.53
2022-11-16T09:14:01.643Z,98154.78
2022-11-16T09:15:04.584Z,98153.81
2022-11-16T09:16:06.292Z,98150.72
2022-11-16T09:17:07.865Z,98151.41
2022-11-16T09:18:09.322Z,98152.38
2022-11-16T09:19:10.777Z,98148.25
2022-11-16T09:20:12.298Z,98152.38
2022-11-16T09:21:24.152Z,98144.50
2022-11-16T09:22:25.617Z,98150.72
2022-11-16T09:23:28.091Z,98155.47
2022-11-16T09:24:29.601Z,98144.63
2022-11-16T09:25:31.074Z,98150.22
2022-11-16T09:26:32.626Z,98143.13
2022-11-16T09:27:34.120Z,98147.13
2022-11-16T09:28:35.816Z,98148.59
2022-11-16T09:29:37.583Z,98141.09
2022-11-16T09:30:39.078Z,98144.69
2022-11-16T09:31:40.992Z,98145.16
2022-11-16T09:32:42.488Z,98143.13
2022-11-16T09:33:43.972Z,98149.69
2022-11-16T09:34:45.493Z,98150.53
2022-11-16T09:35:47.027Z,98142.00
2022-11-16T09:36:48.560Z,98144.50
2022-11-16T09:37:50.059Z,98152.72
2022-11-16T09:39:25.800Z,98153.84
2022-11-16T09:40:13.100Z,98154.38
2022-11-16T09:41:39.555Z,98144.63
2022-11-16T09:42:57.145Z,98152.06
2022-11-16T09:44:11.180Z,98152.06
2022-11-16T09:45:24.613Z,98143.34
2022-11-16T09:46:39.700Z,98149.22
2022-11-16T09:47:54.147Z,98149.56
2022-11-16T09:49:02.797Z,98139.91
2022-11-16T09:50:06.366Z,98146.66
2022-11-16T09:51:12.504Z,98150.47
2022-11-16T09:52:55.417Z,98142.41
2022-11-16T09:54:07.555Z,98144.69
2022-11-16T09:55:38.492Z,98139.25
2022-11-16T09:56:42.145Z,98139.38
2022-11-16T09:57:44.608Z,98140.56
2022-11-16T09:59:14.997Z,98134.84
2022-11-16T10:00:22.252Z,98132.44
2022-11-16T10:01:29.527Z,98132.78
2022-11-16T10:02:37.058Z,98119.03
2022-11-16T10:03:43.520Z,98120.34
2022-11-16T10:04:58.214Z,98120.72
2022-11-16T10:06:04.644Z,98119.72
2022-11-16T10:07:14.236Z,98118.28
2022-11-16T10:08:31.599Z,98117.81
2022-11-16T10:09:35.060Z,98118.97
2022-11-16T10:10:39.645Z,98116.66
2022-11-16T10:11:44.167Z,98119.13
2022-11-16T10:12:51.777Z,98115.38
2022-11-16T10:14:28.684Z,98119.78
2022-11-16T10:15:50.102Z,98115.38
2022-11-16T10:17:04.871Z,98111.75
2022-11-16T10:18:18.020Z,98116.19
2022-11-16T10:19:25.541Z,98110.78
2022-11-16T10:20:31.148Z,98107.97
2022-11-16T10:22:04.933Z,98107.13
2022-11-16T10:23:19.789Z,98104.09
2022-11-16T10:24:56.371Z,98098.38
2022-11-16T10:26:03.702Z,98102.16
2022-11-16T10:27:35.449Z,98095.09
2022-11-16T10:29:01.836Z,98097.72
2022-11-16T10:30:16.630Z,98098.19
2022-11-16T10:31:56.445Z,98099.31
2022-11-16T10:33:09.810Z,98091.41
2022-11-16T10:34:20.178Z,98089.13
2022-11-16T10:35:41.872Z,98091.13
2022-11-16T10:36:44.191Z,98086.34
2022-11-16T10:37:49.588Z,98084.19
2022-11-16T10:38:51.126Z,98083.22
2022-11-16T10:39:52.885Z,98080.94
2022-11-16T10:41:21.311Z,98081.28
2022-11-16T10:42:44.899Z,98076.84
2022-11-16T10:43:48.277Z,98084.41
2022-11-16T10:44:58.547Z,98081.97
2022-11-16T10:46:16.970Z,98083.47
2022-11-16T10:47:29.381Z,98079.50
2022-11-16T10:48:57.505Z,98077.81
2022-11-16T10:50:02.116Z,98081.91
2022-11-16T10:51:05.113Z,98079.78
2022-11-16T10:52:06.791Z,98080.94
2022-11-16T10:53:13.873Z,98080.13
2022-11-16T10:54:17.680Z,98085.53
2022-11-16T10:55:21.663Z,98078.56
2022-11-16T10:56:29.675Z,98074.97
2022-11-16T10:58:00.739Z,98075.16
2022-11-16T10:59:13.748Z,98080.22
2022-11-16T11:00:39.025Z,98079.59
2022-11-16T11:01:49.363Z,98076.47
2022-11-16T11:02:50.941Z,98068.53
2022-11-16T11:03:52.475Z,98072.81
2022-11-16T11:05:03.010Z,98070.34
2022-11-16T11:06:04.650Z,98070.19
2022-11-16T11:07:31.659Z,98069.78
2022-11-16T11:08:33.167Z,98068.16
2022-11-16T11:09:38.626Z,98067.22
2022-11-16T11:10:58.253Z,98072.97
2022-11-16T11:12:08.926Z,98067.41
2022-11-16T11:13:10.380Z,98068.63
2022-11-16T11:14:13.942Z,98064.19
2022-11-16T11:15:26.468Z,98069.78
2022-11-16T11:16:28.094Z,98067.16
2022-11-16T11:17:31.793Z,98070.38
2022-11-16T11:18:33.312Z,98079.50
2022-11-16T11:19:34.798Z,98075.69
2022-11-16T11:20:41.656Z,98079.34
2022-11-16T11:21:47.357Z,98076.94
2022-11-16T11:22:57.741Z,98075.44
2022-11-16T11:24:16.364Z,98074.41
2022-11-16T11:25:32.743Z,98073.25
2022-11-16T11:26:37.514Z,98070.81
2022-11-16T11:27:39.573Z,98075.75
2022-11-16T11:28:47.855Z,98073.56
2022-11-16T11:29:55.061Z,98075.53
2022-11-16T11:30:59.424Z,98076.19
2022-11-16T11:32:05.598Z,98077.84
2022-11-16T11:33:12.400Z,98068.69
2022-11-16T11:34:29.699Z,98071.63
2022-11-16T11:35:32.685Z,98079.69
2022-11-16T11:36:38.424Z,98063.34
2022-11-16T11:37:40.016Z,98066.94
2022-11-16T11:39:06.000Z,98073.63
2022-11-16T11:40:27.677Z,98071.31
2022-11-16T11:41:35.201Z,98071.16
2022-11-16T11:42:40.999Z,98072.00
2022-11-16T11:43:42.536Z,98069.06
2022-11-16T11:44:43.940Z,98062.69
2022-11-16T11:45:49.224Z,98058.75
2022-11-16T11:48:58.494Z,98058.03
2022-11-16T11:50:29.129Z,98066.81
2022-11-16T11:51:35.726Z,98069.25
2022-11-16T11:52:49.732Z,98067.47
2022-11-16T11:53:56.553Z,98064.53
2022-11-16T11:54:58.107Z,98063.34
2022-11-16T11:56:00.220Z,98071.06
2022-11-16T11:57:03.183Z,98068.75
2022-11-16T11:58:06.289Z,98070.22
2022-11-16T11:59:17.444Z,98072.31
2022-11-16T12:00:19.866Z,98070.34
2022-11-16T12:01:25.239Z,98065.34
2022-11-16T12:02:52.301Z,98065.22
2022-11-16T12:04:31.161Z,98075.50
2022-11-16T12:05:47.786Z,98067.66
2022-11-16T12:06:57.724Z,98071.88
2022-11-16T12:09:00.741Z,98070.97
2022-11-16T12:10:05.099Z,98069.94
2022-11-16T12:11:12.527Z,98069.09
2022-11-16T12:12:37.277Z,98074.75
2022-11-16T12:13:54.269Z,98070.47
2022-11-16T12:15:07.804Z,98073.69
2022-11-16T12:16:09.242Z,98061.97
2022-11-16T12:17:16.753Z,98073.00
2022-11-16T12:18:34.616Z,98067.69
2022-11-16T12:19:47.496Z,98076.00
2022-11-16T12:21:07.397Z,98072.56
2022-11-16T12:22:29.092Z,98072.78
2022-11-16T12:23:44.729Z,98074.13
2022-11-16T12:25:07.822Z,98073.44
2022-11-16T12:26:32.540Z,98071.00
2022-11-16T12:27:50.713Z,98070.03
2022-11-16T12:28:58.307Z,98072.81
2022-11-16T12:30:08.755Z,98074.22
2022-11-16T12:31:45.156Z,98066.50
2022-11-16T12:33:00.867Z,98066.94
2022-11-16T12:34:22.824Z,98067.16
2022-11-16T12:35:39.398Z,98070.44
2022-11-16T12:37:31.285Z,98064.50
2022-11-16T12:38:38.706Z,98067.25
2022-11-16T12:40:03.435Z,98065.81
2022-11-16T12:41:16.870Z,98069.97
2022-11-16T12:42:58.022Z,98071.88
2022-11-16T12:44:02.676Z,98067.78
2022-11-16T12:45:32.744Z,98066.25
2022-11-16T12:46:54.298Z,98072.38
2022-11-16T12:48:20.474Z,98069.09
2022-11-16T12:49:36.425Z,98062.63
2022-11-16T12:50:57.195Z,98068.13
2022-11-16T12:52:23.336Z,98066.31
2022-11-16T12:53:51.260Z,98064.09
2022-11-16T12:57:18.365Z,98062.03
2022-11-16T12:58:32.573Z,98067.75
2022-11-16T12:59:56.061Z,98064.94
2022-11-16T13:01:09.600Z,98060.63
2022-11-16T13:02:36.121Z,98062.28
2022-11-16T13:03:56.190Z,98059.22
2022-11-16T13:05:04.362Z,98055.94
2022-11-16T13:06:15.211Z,98058.72
2022-11-16T13:07:42.960Z,98047.94
2022-11-16T13:08:55.859Z,98052.06
2022-11-16T13:10:05.146Z,98041.25
2022-11-16T13:11:27.324Z,98052.78
2022-11-16T13:12:31.078Z,98050.53
2022-11-16T13:13:36.889Z,98046.47
2022-11-16T13:14:41.625Z,98049.78